Middle Torch Key, Florida
Current Conditions -  °F | °C
As of 1:53 PM on Friday 26 Dec 2014 (Local Time) from KNQX Reporting Station
Overcast Overcast  
Wind Chill: 76°   Ceiling: 7000
Heat Index: 76°   Visibility: 10mi
Dew Point: 70°   Wind: 10mph
Humidity: 82%   Direction: 70°ENE
Pressure: 30.1"   Gusts: NA
Location:  24.6465°N, 81.5399°W
Report Text: KNQX 261853Z 07009KT 10SM OVC070 24/21 A3010 RMK AO2 SLP193 T02440211 $
Loading
Personal Weather Stations






























Interactive Weather Map New forecast layout! Learn more

10-Day Weather Forecast

Advertisements
Track Severe Weather on mobile